createdAt,value
2019-04-21T00:00:33.169Z,17.42
2019-04-21T00:03:15.268Z,17.25
2019-04-21T00:06:06.077Z,17.26
2019-04-21T00:08:35.096Z,17.64
2019-04-21T00:11:13.198Z,17.57
2019-04-21T00:13:41.337Z,17.66
2019-04-21T00:16:02.465Z,17.85
2019-04-21T00:19:01.121Z,17.80
2019-04-21T00:21:34.365Z,17.84
2019-04-21T00:24:25.114Z,18.83
2019-04-21T00:27:03.537Z,18.75
2019-04-21T00:29:45.719Z,18.63
2019-04-21T00:32:10.441Z,18.86
2019-04-21T00:34:30.064Z,19.02
2019-04-21T00:37:13.094Z,19.24
2019-04-21T00:40:00.147Z,19.11
2019-04-21T00:42:30.341Z,18.95
2019-04-21T00:44:59.148Z,18.94
2019-04-21T00:47:35.872Z,18.87
2019-04-21T00:50:12.857Z,18.46
2019-04-21T00:58:17.611Z,18.41
2019-04-21T01:00:55.658Z,18.49
2019-04-21T01:03:26.121Z,18.50
2019-04-21T01:06:01.400Z,18.40
2019-04-21T01:08:25.163Z,18.46
2019-04-21T01:10:52.766Z,18.68
2019-04-21T01:13:44.065Z,18.72
2019-04-21T01:16:14.493Z,18.73
2019-04-21T01:18:42.733Z,18.64
2019-04-21T01:20:55.168Z,18.60
2019-04-21T01:23:27.516Z,18.68
2019-04-21T01:26:14.500Z,18.57
2019-04-21T01:28:52.843Z,18.76
2019-04-21T01:31:22.725Z,18.73
2019-04-21T01:34:05.617Z,18.77
2019-04-21T01:36:31.759Z,18.70
2019-04-21T01:39:15.036Z,18.65
2019-04-21T01:41:46.270Z,18.58
2019-04-21T01:44:22.690Z,18.49
2019-04-21T01:46:45.896Z,18.45
2019-04-21T01:49:11.551Z,18.44
2019-04-21T01:52:08.932Z,18.52
2019-04-21T01:54:48.118Z,18.45
2019-04-21T01:57:28.294Z,18.40
2019-04-21T01:59:54.268Z,18.46
2019-04-21T02:02:40.412Z,18.42
2019-04-21T02:05:11.820Z,18.44
2019-04-21T02:07:39.002Z,18.46
2019-04-21T02:10:21.125Z,18.26
2019-04-21T02:12:51.283Z,18.25
2019-04-21T02:15:31.145Z,18.33
2019-04-21T02:18:00.701Z,18.46
2019-04-21T02:20:26.899Z,18.42
2019-04-21T02:23:23.035Z,18.29
2019-04-21T02:25:44.344Z,18.23
2019-04-21T02:28:25.939Z,18.38
2019-04-21T02:31:04.977Z,18.30
2019-04-21T02:33:39.146Z,18.21
2019-04-21T02:38:44.730Z,18.07
2019-04-21T02:41:18.758Z,17.86
2019-04-21T02:43:56.051Z,17.75
2019-04-21T02:46:35.399Z,17.71
2019-04-21T02:49:04.290Z,17.69
2019-04-21T02:51:36.341Z,17.78
2019-04-21T02:54:41.056Z,17.80
2019-04-21T03:05:26.145Z,17.68
2019-04-21T03:07:50.238Z,17.65
2019-04-21T03:10:20.578Z,17.65
2019-04-21T03:12:45.710Z,17.62
2019-04-21T03:15:34.305Z,17.59
2019-04-21T03:18:06.358Z,17.54
2019-04-21T03:31:27.940Z,17.48
2019-04-21T03:34:04.233Z,17.42
2019-04-21T03:41:26.483Z,17.03
2019-04-21T03:43:44.622Z,16.97
2019-04-21T03:46:20.410Z,17.02
2019-04-21T03:53:53.725Z,16.77
2019-04-21T03:59:14.211Z,16.52
2019-04-21T04:05:01.073Z,16.49
2019-04-21T04:07:59.080Z,16.45
2019-04-21T04:10:51.914Z,16.58
2019-04-21T04:13:05.428Z,16.69
2019-04-21T04:15:49.394Z,16.67
2019-04-21T04:18:21.088Z,16.40
2019-04-21T04:20:42.594Z,15.95
2019-04-21T04:23:25.005Z,16.01
2019-04-21T04:25:49.415Z,15.94
2019-04-21T04:31:05.671Z,15.78
2019-04-21T04:33:48.305Z,15.76
2019-04-21T04:36:40.489Z,15.66
2019-04-21T04:38:56.302Z,15.59
2019-04-21T04:41:36.938Z,15.54
2019-04-21T04:44:06.986Z,15.27
2019-04-21T04:46:46.951Z,15.17
2019-04-21T04:49:14.401Z,15.11
2019-04-21T04:52:16.075Z,15.00
2019-04-21T04:54:25.996Z,14.94
2019-04-21T04:56:47.773Z,14.92
2019-04-21T04:59:33.678Z,14.91
2019-04-21T05:02:08.721Z,14.93
2019-04-21T05:04:37.433Z,14.86
2019-04-21T05:09:50.107Z,14.26
2019-04-21T05:12:22.695Z,14.19
2019-04-21T05:14:46.118Z,14.43
2019-04-21T05:22:24.300Z,14.07
2019-04-21T05:24:50.966Z,14.25
2019-04-21T05:27:38.543Z,14.23
2019-04-21T05:33:45.022Z,14.26
2019-04-21T05:36:38.012Z,14.08
2019-04-21T05:39:24.734Z,13.98
2019-04-21T05:41:52.339Z,13.86
2019-04-21T05:44:41.895Z,13.93
2019-04-21T05:47:22.092Z,13.98
2019-04-21T05:50:11.536Z,13.84
2019-04-21T05:52:51.399Z,13.69
2019-04-21T05:55:36.109Z,13.67
2019-04-21T05:58:02.557Z,13.55
2019-04-21T06:01:03.878Z,13.48
2019-04-21T06:03:15.185Z,13.38
2019-04-21T06:06:03.402Z,13.47
2019-04-21T06:08:27.105Z,13.46
2019-04-21T06:11:14.901Z,13.53
2019-04-21T06:13:38.729Z,13.78
2019-04-21T06:16:21.699Z,13.53
2019-04-21T06:21:13.080Z,13.88
2019-04-21T06:23:45.014Z,14.07
2019-04-21T06:29:10.122Z,13.55
2019-04-21T06:31:50.234Z,14.74
2019-04-21T06:34:06.722Z,15.83
2019-04-21T06:36:42.566Z,15.58
2019-04-21T06:39:16.605Z,15.40
2019-04-21T06:41:48.549Z,16.63
2019-04-21T06:44:44.828Z,17.53
2019-04-21T06:46:48.941Z,18.05
2019-04-21T06:49:27.855Z,17.98
2019-04-21T06:52:11.396Z,17.99
2019-04-21T06:54:44.708Z,18.44
2019-04-21T06:57:10.812Z,18.56
2019-04-21T06:59:38.344Z,18.84
2019-04-21T07:04:54.802Z,18.71
2019-04-21T07:07:26.064Z,19.86
2019-04-21T07:10:01.391Z,19.17
2019-04-21T07:12:28.938Z,20.53
2019-04-21T07:15:03.289Z,20.18
2019-04-21T07:17:38.739Z,21.85
2019-04-21T07:20:13.105Z,22.09
2019-04-21T07:22:51.168Z,21.98
2019-04-21T07:25:26.390Z,21.29
2019-04-21T07:27:52.325Z,22.30
2019-04-21T07:30:31.603Z,20.58
2019-04-21T07:33:22.093Z,22.08
2019-04-21T07:35:51.718Z,22.65
2019-04-21T07:38:07.927Z,22.09
2019-04-21T07:40:40.541Z,22.64
2019-04-21T07:43:10.911Z,22.68
2019-04-21T07:45:44.423Z,23.05
2019-04-21T07:48:36.138Z,22.79
2019-04-21T07:51:27.844Z,23.89
2019-04-21T07:54:08.662Z,23.70
2019-04-21T07:56:20.254Z,24.51
2019-04-21T07:59:05.216Z,24.72
2019-04-21T08:01:48.254Z,25.08
2019-04-21T08:04:24.625Z,24.60
2019-04-21T08:06:46.467Z,25.75
2019-04-21T08:09:22.938Z,26.31
2019-04-21T08:11:51.738Z,25.97
2019-04-21T08:14:33.401Z,26.95
2019-04-21T08:17:04.705Z,27.73
2019-04-21T08:19:35.863Z,27.14
2019-04-21T08:22:12.481Z,26.87
2019-04-21T08:24:43.748Z,28.03
2019-04-21T08:27:20.325Z,27.45
2019-04-21T08:29:51.933Z,27.78
2019-04-21T08:32:40.962Z,28.11
2019-04-21T08:35:20.760Z,28.52
2019-04-21T08:37:31.414Z,28.73
2019-04-21T08:40:12.281Z,28.25
2019-04-21T08:42:38.718Z,28.62
2019-04-21T08:45:20.401Z,28.01
2019-04-21T08:50:23.866Z,27.25
2019-04-21T08:53:04.157Z,28.19
2019-04-21T08:56:00.060Z,29.19
2019-04-21T08:59:00.753Z,29.20
2019-04-21T09:01:50.802Z,28.66
2019-04-21T09:04:26.220Z,29.93
2019-04-21T09:09:30.696Z,29.60
2019-04-21T09:12:04.655Z,28.96
2019-04-21T09:14:36.892Z,29.23
2019-04-21T09:17:06.579Z,28.36
2019-04-21T09:19:51.837Z,28.90
2019-04-21T09:22:17.814Z,28.77
2019-04-21T09:24:54.365Z,29.50
2019-04-21T09:27:27.858Z,29.36
2019-04-21T09:29:48.975Z,29.54
2019-04-21T09:32:20.321Z,29.01
2019-04-21T09:34:51.334Z,29.47
2019-04-21T09:37:37.892Z,29.10
2019-04-21T09:40:00.904Z,30.64
2019-04-21T09:42:41.195Z,30.77
2019-04-21T09:45:11.620Z,28.29
2019-04-21T09:47:50.444Z,27.31
2019-04-21T09:50:17.372Z,26.53
2019-04-21T09:52:55.499Z,29.12
2019-04-21T09:55:26.229Z,29.27
2019-04-21T09:58:08.733Z,30.54
2019-04-21T10:00:36.323Z,30.88
2019-04-21T10:03:08.787Z,30.72
2019-04-21T10:05:39.903Z,30.43
2019-04-21T10:08:12.509Z,29.86
2019-04-21T10:10:44.503Z,28.80
2019-04-21T10:13:17.117Z,28.57
2019-04-21T10:15:58.899Z,28.45
2019-04-21T10:18:31.685Z,27.32
2019-04-21T10:21:05.448Z,27.43
2019-04-21T10:23:37.682Z,28.80
2019-04-21T10:26:10.484Z,28.13
2019-04-21T10:29:04.310Z,29.01
2019-04-21T10:31:32.374Z,29.45
2019-04-21T10:34:09.338Z,29.50
2019-04-21T10:36:41.177Z,29.70
2019-04-21T10:39:14.050Z,27.95
2019-04-21T10:41:48.065Z,28.40
2019-04-21T10:44:21.042Z,28.92
2019-04-21T10:46:54.524Z,29.62
2019-04-21T10:49:27.072Z,28.21
2019-04-21T10:52:03.177Z,27.69
2019-04-21T10:54:49.393Z,27.46
2019-04-21T10:57:16.796Z,28.52
2019-04-21T10:59:51.034Z,28.93
2019-04-21T11:02:29.096Z,27.42
2019-04-21T11:05:02.980Z,28.40
2019-04-21T11:08:07.744Z,28.57
2019-04-21T11:10:32.301Z,29.82
2019-04-21T11:13:10.352Z,27.82
2019-04-21T11:15:45.419Z,29.71
2019-04-21T11:18:19.836Z,29.47
2019-04-21T11:21:02.952Z,29.80
2019-04-21T11:23:37.493Z,30.37
2019-04-21T11:26:12.035Z,29.49
2019-04-21T11:28:47.099Z,27.44
2019-04-21T11:31:20.807Z,28.54
2019-04-21T11:33:53.354Z,27.83
2019-04-21T11:36:27.009Z,28.58
2019-04-21T11:39:28.750Z,27.70
2019-04-21T11:41:51.975Z,27.40
2019-04-21T11:44:24.811Z,26.90
2019-04-21T11:46:58.277Z,28.26
2019-04-21T11:49:32.408Z,27.67
2019-04-21T11:52:04.899Z,27.71
2019-04-21T11:54:37.143Z,26.82
2019-04-21T11:57:17.643Z,27.43
2019-04-21T11:59:43.863Z,28.80
2019-04-21T12:02:19.350Z,27.57
2019-04-21T12:04:51.670Z,27.13
2019-04-21T12:07:25.407Z,25.76
2019-04-21T12:10:00.101Z,26.59
2019-04-21T12:12:32.971Z,25.42
2019-04-21T12:15:06.085Z,24.81
2019-04-21T12:17:39.752Z,25.22
2019-04-21T12:20:12.715Z,25.52
2019-04-21T12:22:45.339Z,25.35
2019-04-21T12:25:19.186Z,26.47
2019-04-21T12:27:52.081Z,26.88
2019-04-21T12:30:24.295Z,26.84
2019-04-21T12:33:02.282Z,25.40
2019-04-21T12:35:35.615Z,26.14
2019-04-21T12:38:08.869Z,27.01
2019-04-21T12:40:42.303Z,26.84
2019-04-21T12:43:14.710Z,27.26
2019-04-21T12:45:49.488Z,27.23
2019-04-21T12:48:22.211Z,27.47
2019-04-21T12:50:54.282Z,27.07
2019-04-21T12:53:29.672Z,27.32
2019-04-21T12:56:02.219Z,27.54
2019-04-21T12:58:35.253Z,28.08
2019-04-21T13:01:07.548Z,28.45
2019-04-21T13:03:39.768Z,28.97
2019-04-21T13:06:13.893Z,28.98
2019-04-21T13:08:54.505Z,29.03
2019-04-21T13:11:26.195Z,28.25
2019-04-21T13:13:58.003Z,28.81
2019-04-21T13:16:29.849Z,28.33
2019-04-21T13:19:03.061Z,28.16
2019-04-21T13:21:36.130Z,27.26
2019-04-21T13:24:08.294Z,26.77
2019-04-21T13:26:47.212Z,26.39
2019-04-21T13:29:14.567Z,26.38
2019-04-21T13:31:47.748Z,26.25
2019-04-21T13:34:20.077Z,26.02
2019-04-21T13:36:53.973Z,26.00
2019-04-21T13:40:24.898Z,25.82
2019-04-21T13:42:43.882Z,25.66
2019-04-21T13:45:12.250Z,25.41
2019-04-21T13:47:46.494Z,25.26
2019-04-21T13:50:19.313Z,24.97
2019-04-21T13:52:51.452Z,25.38
2019-04-21T13:55:23.546Z,25.49
2019-04-21T13:57:56.790Z,25.52
2019-04-21T14:00:31.800Z,25.13
2019-04-21T14:03:04.765Z,25.25
2019-04-21T14:05:36.539Z,25.45
2019-04-21T14:08:09.270Z,24.94
2019-04-21T14:10:45.440Z,24.85
2019-04-21T14:13:27.497Z,25.13
2019-04-21T14:16:00.439Z,24.69
2019-04-21T14:18:32.876Z,24.43
2019-04-21T14:21:07.162Z,24.33
2019-04-21T14:23:44.633Z,24.63
2019-04-21T14:26:14.325Z,24.81
2019-04-21T14:28:49.227Z,24.44
2019-04-21T14:31:22.198Z,25.05
2019-04-21T14:33:56.363Z,24.86
2019-04-21T14:36:28.949Z,24.56
2019-04-21T14:39:00.778Z,24.55
2019-04-21T14:41:35.772Z,25.03
2019-04-21T14:44:11.014Z,25.09
2019-04-21T14:46:55.309Z,25.13
2019-04-21T14:49:35.549Z,25.31
2019-04-21T14:52:30.756Z,25.40
2019-04-21T14:55:27.443Z,24.77
2019-04-21T14:57:59.280Z,24.62
2019-04-21T15:00:35.876Z,25.26
2019-04-21T15:03:07.834Z,25.40
2019-04-21T15:05:39.798Z,25.47
2019-04-21T15:08:11.533Z,25.98
2019-04-21T15:10:43.434Z,26.26
2019-04-21T15:13:15.213Z,26.12
2019-04-21T15:15:47.927Z,26.26
2019-04-21T15:18:21.004Z,26.46
2019-04-21T15:20:53.182Z,26.66
2019-04-21T15:23:28.169Z,25.58
2019-04-21T15:26:06.401Z,26.38
2019-04-21T15:28:42.548Z,25.77
2019-04-21T15:31:21.643Z,25.99
2019-04-21T15:33:49.554Z,25.61
2019-04-21T15:36:22.811Z,25.34
2019-04-21T15:38:56.162Z,25.24
2019-04-21T15:41:28.458Z,24.50
2019-04-21T15:44:02.618Z,24.42
2019-04-21T15:46:35.212Z,24.31
2019-04-21T15:49:07.379Z,24.21
2019-04-21T15:51:40.025Z,24.09
2019-04-21T15:54:11.785Z,24.25
2019-04-21T15:57:02.844Z,23.78
2019-04-21T15:59:52.880Z,23.33
2019-04-21T16:02:56.065Z,23.26
2019-04-21T16:05:28.567Z,23.31
2019-04-21T16:08:00.612Z,23.43
2019-04-21T16:10:42.867Z,23.31
2019-04-21T16:13:19.247Z,23.46
2019-04-21T16:15:54.896Z,23.44
2019-04-21T16:18:28.093Z,23.72
2019-04-21T16:21:00.126Z,23.13
2019-04-21T16:23:33.553Z,22.30
2019-04-21T16:26:06.629Z,21.26
2019-04-21T16:28:41.690Z,21.03
2019-04-21T16:31:14.235Z,20.74
2019-04-21T16:33:47.122Z,20.65
2019-04-21T16:36:21.357Z,20.52
2019-04-21T16:38:53.588Z,20.48
2019-04-21T16:41:26.512Z,20.45
2019-04-21T16:43:58.969Z,20.33
2019-04-21T16:46:33.506Z,20.17
2019-04-21T16:49:05.607Z,20.21
2019-04-21T16:51:40.299Z,20.36
2019-04-21T16:54:26.256Z,20.49
2019-04-21T16:57:17.692Z,20.63
2019-04-21T16:59:53.048Z,20.90
2019-04-21T17:02:25.122Z,21.07
2019-04-21T17:04:58.123Z,21.08
2019-04-21T17:07:30.382Z,21.19
2019-04-21T17:10:04.525Z,21.33
2019-04-21T17:12:37.415Z,21.23
2019-04-21T17:15:27.367Z,21.20
2019-04-21T17:18:04.170Z,21.08
2019-04-21T17:20:32.265Z,21.41
2019-04-21T17:22:51.535Z,21.49
2019-04-21T17:25:25.898Z,21.51
2019-04-21T17:27:58.785Z,21.58
2019-04-21T17:30:30.741Z,21.75
2019-04-21T17:33:03.570Z,21.76
2019-04-21T17:35:36.475Z,21.73
2019-04-21T17:38:09.860Z,21.46
2019-04-21T17:40:44.464Z,21.40
2019-04-21T17:43:18.050Z,21.39
2019-04-21T17:45:50.958Z,21.27
2019-04-21T17:48:23.380Z,21.22
2019-04-21T17:51:01.285Z,21.32
2019-04-21T17:53:51.645Z,21.29
2019-04-21T17:56:48.099Z,21.27
2019-04-21T17:59:17.699Z,21.15
2019-04-21T18:01:54.493Z,20.93
2019-04-21T18:04:27.933Z,20.75
2019-04-21T18:07:35.934Z,20.62
2019-04-21T18:10:07.391Z,20.62
2019-04-21T18:12:36.093Z,20.50
2019-04-21T18:15:15.982Z,20.41
2019-04-21T18:17:29.001Z,20.23
2019-04-21T18:20:01.763Z,19.91
2019-04-21T18:22:59.078Z,19.92
2019-04-21T18:25:42.245Z,19.83
2019-04-21T18:28:04.948Z,19.76
2019-04-21T18:30:52.310Z,19.76
2019-04-21T18:33:31.805Z,19.67
2019-04-21T18:36:38.028Z,19.67
2019-04-21T18:39:43.631Z,19.67
2019-04-21T18:42:31.129Z,19.54
2019-04-21T18:48:06.784Z,19.36
2019-04-21T18:50:53.621Z,19.47
2019-04-21T18:53:52.181Z,19.47
2019-04-21T18:56:17.514Z,19.42
2019-04-21T18:58:48.498Z,19.33
2019-04-21T19:01:27.313Z,19.23
2019-04-21T19:03:56.138Z,19.18
2019-04-21T19:06:45.487Z,18.89
2019-04-21T19:09:16.996Z,18.94
2019-04-21T19:11:59.401Z,18.96
2019-04-21T19:14:36.386Z,18.61
2019-04-21T19:17:39.516Z,18.68
2019-04-21T19:22:15.631Z,18.70
2019-04-21T19:24:55.596Z,18.64
2019-04-21T19:27:38.349Z,18.61
2019-04-21T19:30:05.445Z,18.55
2019-04-21T19:32:30.282Z,18.58
2019-04-21T19:34:55.790Z,18.48
2019-04-21T19:37:26.385Z,18.32
2019-04-21T19:40:07.830Z,18.29
2019-04-21T19:42:40.869Z,18.27
2019-04-21T19:45:19.177Z,18.26
2019-04-21T19:47:52.762Z,18.28
2019-04-21T19:50:36.505Z,18.28
2019-04-21T19:52:55.566Z,18.36
2019-04-21T19:55:20.051Z,18.26
2019-04-21T19:57:52.708Z,18.22
2019-04-21T20:00:26.574Z,18.26
2019-04-21T20:03:10.444Z,18.05
2019-04-21T20:05:58.142Z,18.00
2019-04-21T20:08:46.967Z,17.76
2019-04-21T20:11:33.680Z,17.44
2019-04-21T20:14:42.595Z,17.29
2019-04-21T20:16:53.141Z,17.25
2019-04-21T20:19:26.677Z,17.23
2019-04-21T20:22:07.166Z,17.18
2019-04-21T20:24:49.907Z,17.20
2019-04-21T20:27:43.077Z,17.24
2019-04-21T20:30:32.810Z,17.31
2019-04-21T20:33:18.115Z,17.35
2019-04-21T20:35:55.916Z,17.30
2019-04-21T20:38:32.704Z,17.26
2019-04-21T20:41:15.865Z,17.42
2019-04-21T20:43:51.274Z,17.56
2019-04-21T20:46:24.683Z,17.66
2019-04-21T20:48:56.803Z,17.67
2019-04-21T20:51:35.311Z,17.65
2019-04-21T20:54:01.799Z,17.57
2019-04-21T20:56:42.013Z,17.52
2019-04-21T20:59:12.146Z,17.56
2019-04-21T21:01:48.933Z,17.44
2019-04-21T21:04:17.530Z,17.47
2019-04-21T21:07:01.923Z,17.47
2019-04-21T21:09:29.257Z,17.45
2019-04-21T21:13:16.513Z,17.24
2019-04-21T21:14:42.229Z,17.22
2019-04-21T21:17:37.880Z,17.17
2019-04-21T21:20:00.787Z,17.24
2019-04-21T21:22:35.428Z,17.17
2019-04-21T21:25:23.534Z,17.02
2019-04-21T21:27:47.031Z,17.23
2019-04-21T21:30:22.731Z,16.93
2019-04-21T21:33:00.857Z,16.83
2019-04-21T21:35:29.626Z,16.69
2019-04-21T21:38:08.148Z,16.48
2019-04-21T21:40:36.640Z,16.32
2019-04-21T21:43:01.616Z,16.38
2019-04-21T21:45:40.059Z,16.35
2019-04-21T21:48:21.790Z,16.39
2019-04-21T21:50:50.397Z,16.44
2019-04-21T21:53:18.820Z,16.30
2019-04-21T21:55:47.047Z,16.40
2019-04-21T21:58:25.097Z,16.41
2019-04-21T22:00:56.683Z,16.36
2019-04-21T22:03:31.779Z,16.24
2019-04-21T22:06:06.257Z,16.12
2019-04-21T22:08:34.366Z,15.81
2019-04-21T22:11:08.926Z,15.54
2019-04-21T22:13:47.461Z,15.36
2019-04-21T22:16:17.785Z,15.26
2019-04-21T22:19:08.036Z,15.30
2019-04-21T22:21:51.446Z,15.66
2019-04-21T22:24:09.456Z,15.52
2019-04-21T22:26:36.980Z,15.36
2019-04-21T22:29:09.688Z,15.25
2019-04-21T22:31:44.565Z,15.23
2019-04-21T22:34:18.053Z,15.17
2019-04-21T22:37:01.569Z,15.12
2019-04-21T22:39:42.281Z,15.14
2019-04-21T22:42:05.012Z,15.14
2019-04-21T22:44:36.420Z,15.06
2019-04-21T22:47:16.913Z,14.80
2019-04-21T22:49:42.588Z,14.89
2019-04-21T22:52:20.658Z,14.80
2019-04-21T22:54:50.680Z,14.76
2019-04-21T22:57:26.587Z,14.63
2019-04-21T23:00:01.440Z,14.31
2019-04-21T23:02:33.586Z,14.12
2019-04-21T23:05:07.902Z,14.19
2019-04-21T23:07:48.273Z,14.47
2019-04-21T23:10:13.576Z,14.46
2019-04-21T23:12:45.890Z,14.28
2019-04-21T23:15:20.895Z,14.08
2019-04-21T23:18:08.971Z,13.95
2019-04-21T23:20:46.191Z,13.92
2019-04-21T23:23:16.262Z,13.96
2019-04-21T23:25:45.914Z,13.87
2019-04-21T23:28:20.917Z,13.96
2019-04-21T23:31:01.764Z,14.02
2019-04-21T23:33:16.470Z,14.03
2019-04-21T23:35:49.529Z,14.06
2019-04-21T23:38:29.258Z,14.09
2019-04-21T23:41:00.541Z,13.86
2019-04-21T23:43:33.040Z,13.76
2019-04-21T23:46:11.906Z,13.97
2019-04-21T23:48:56.224Z,13.96
2019-04-21T23:51:25.897Z,13.91
2019-04-21T23:53:44.398Z,13.71
2019-04-21T23:56:23.256Z,13.56
2019-04-21T23:58:56.450Z,13.61
